sensor_id;sensor_type;location;lat;lon;timestamp;pressure;altitude;pressure_sealevel;temperature;humidity
5609;BME280;2826;51.354;9.588;2023-03-01T00:01:16;99413.13;;;-1.66;66.90
5609;BME280;2826;51.354;9.588;2023-03-01T00:03:45;99418.28;;;-1.64;67.03
5609;BME280;2826;51.354;9.588;2023-03-01T00:06:12;99408.16;;;-1.63;66.96
5609;BME280;2826;51.354;9.588;2023-03-01T00:08:39;99416.63;;;-1.62;67.23
5609;BME280;2826;51.354;9.588;2023-03-01T00:11:07;99410.69;;;-1.63;67.04
5609;BME280;2826;51.354;9.588;2023-03-01T00:13:35;99412.38;;;-1.63;67.17
5609;BME280;2826;51.354;9.588;2023-03-01T00:16:03;99414.81;;;-1.66;67.07
5609;BME280;2826;51.354;9.588;2023-03-01T00:18:29;99408.78;;;-1.70;67.20
5609;BME280;2826;51.354;9.588;2023-03-01T00:20:57;99406.19;;;-1.72;67.23
5609;BME280;2826;51.354;9.588;2023-03-01T00:23:24;99407.84;;;-1.74;67.40
5609;BME280;2826;51.354;9.588;2023-03-01T00:25:51;99408.59;;;-1.76;67.46
5609;BME280;2826;51.354;9.588;2023-03-01T00:28:18;99400.06;;;-1.78;67.68
5609;BME280;2826;51.354;9.588;2023-03-01T00:30:45;99397.47;;;-1.80;67.52
5609;BME280;2826;51.354;9.588;2023-03-01T00:33:12;99407.56;;;-1.81;67.57
5609;BME280;2826;51.354;9.588;2023-03-01T00:35:38;99405.81;;;-1.84;67.58
5609;BME280;2826;51.354;9.588;2023-03-01T00:38:06;99407.47;;;-1.86;67.99
5609;BME280;2826;51.354;9.588;2023-03-01T00:40:35;99406.63;;;-1.85;67.99
5609;BME280;2826;51.354;9.588;2023-03-01T00:43:02;99408.34;;;-1.84;67.67
5609;BME280;2826;51.354;9.588;2023-03-01T00:45:29;99406.69;;;-1.84;67.78
5609;BME280;2826;51.354;9.588;2023-03-01T00:47:57;99397.41;;;-1.81;67.77
5609;BME280;2826;51.354;9.588;2023-03-01T00:50:24;99400.94;;;-1.78;67.57
5609;BME280;2826;51.354;9.588;2023-03-01T00:52:53;99408.59;;;-1.76;67.38
5609;BME280;2826;51.354;9.588;2023-03-01T00:55:22;99406.13;;;-1.73;67.44
5609;BME280;2826;51.354;9.588;2023-03-01T00:57:48;99410.44;;;-1.71;67.45
5609;BME280;2826;51.354;9.588;2023-03-01T01:00:16;99415.53;;;-1.71;67.45
5609;BME280;2826;51.354;9.588;2023-03-01T01:02:43;99408.84;;;-1.68;67.40
5609;BME280;2826;51.354;9.588;2023-03-01T01:05:10;99402.97;;;-1.66;67.38
5609;BME280;2826;51.354;9.588;2023-03-01T01:07:37;99408.06;;;-1.66;67.53
5609;BME280;2826;51.354;9.588;2023-03-01T01:10:04;99397.97;;;-1.63;67.55
5609;BME280;2826;51.354;9.588;2023-03-01T01:12:33;99398.16;;;-1.56;67.48
5609;BME280;2826;51.354;9.588;2023-03-01T01:15:00;99399.03;;;-1.54;67.83
5609;BME280;2826;51.354;9.588;2023-03-01T01:17:26;99388.97;;;-1.51;67.91
5609;BME280;2826;51.354;9.588;2023-03-01T01:19:53;99390.84;;;-1.46;67.95
5609;BME280;2826;51.354;9.588;2023-03-01T01:22:19;99383.34;;;-1.39;67.99
5609;BME280;2826;51.354;9.588;2023-03-01T01:24:46;99383.47;;;-1.36;67.84
5609;BME280;2826;51.354;9.588;2023-03-01T01:27:13;99371.66;;;-1.34;67.97
5609;BME280;2826;51.354;9.588;2023-03-01T01:29:40;99369.13;;;-1.33;67.81
5609;BME280;2826;51.354;9.588;2023-03-01T01:32:07;99366.72;;;-1.28;67.71
5609;BME280;2826;51.354;9.588;2023-03-01T01:34:34;99355.59;;;-1.32;68.05
5609;BME280;2826;51.354;9.588;2023-03-01T01:37:00;99354.72;;;-1.32;68.33
5609;BME280;2826;51.354;9.588;2023-03-01T01:39:28;99355.59;;;-1.32;68.43
5609;BME280;2826;51.354;9.588;2023-03-01T01:41:55;99343.72;;;-1.31;68.44
5609;BME280;2826;51.354;9.588;2023-03-01T01:44:23;99340.34;;;-1.30;68.28
5609;BME280;2826;51.354;9.588;2023-03-01T01:46:53;99358.88;;;-1.36;68.53
5609;BME280;2826;51.354;9.588;2023-03-01T01:49:30;99357.06;;;-1.40;68.92
5609;BME280;2826;51.354;9.588;2023-03-01T01:52:05;99353.69;;;-1.39;68.64
5609;BME280;2826;51.354;9.588;2023-03-01T01:54:39;99346.94;;;-1.37;68.64
5609;BME280;2826;51.354;9.588;2023-03-01T01:57:10;99334.22;;;-1.37;68.61
5609;BME280;2826;51.354;9.588;2023-03-01T01:59:41;99332.47;;;-1.39;68.63
5609;BME280;2826;51.354;9.588;2023-03-01T02:02:11;99340.97;;;-1.39;68.37
5609;BME280;2826;51.354;9.588;2023-03-01T02:04:38;99347.75;;;-1.39;68.14
5609;BME280;2826;51.354;9.588;2023-03-01T02:07:09;99354.44;;;-1.43;68.64
5609;BME280;2826;51.354;9.588;2023-03-01T02:09:41;99341.66;;;-1.45;68.86
5609;BME280;2826;51.354;9.588;2023-03-01T02:12:08;99348.47;;;-1.43;69.12
5609;BME280;2826;51.354;9.588;2023-03-01T02:14:35;99340.81;;;-1.45;69.26
5609;BME280;2826;51.354;9.588;2023-03-01T02:17:02;99332.94;;;-1.53;69.21
5609;BME280;2826;51.354;9.588;2023-03-01T02:19:41;99338.28;;;-1.45;69.21
5609;BME280;2826;51.354;9.588;2023-03-01T02:22:18;99329.81;;;-1.44;69.39
5609;BME280;2826;51.354;9.588;2023-03-01T02:24:54;99329.03;;;-1.41;69.09
5609;BME280;2826;51.354;9.588;2023-03-01T02:27:29;99325.66;;;-1.40;69.13
5609;BME280;2826;51.354;9.588;2023-03-01T02:30:01;99326.44;;;-1.43;69.29
5609;BME280;2826;51.354;9.588;2023-03-01T02:32:28;99331.63;;;-1.40;69.10
5609;BME280;2826;51.354;9.588;2023-03-01T02:34:54;99324.78;;;-1.42;69.26
5609;BME280;2826;51.354;9.588;2023-03-01T02:37:23;99335.75;;;-1.43;69.28
5609;BME280;2826;51.354;9.588;2023-03-01T02:39:55;99327.19;;;-1.47;69.48
5609;BME280;2826;51.354;9.588;2023-03-01T02:42:26;99313.56;;;-1.49;69.10
5609;BME280;2826;51.354;9.588;2023-03-01T02:44:56;99315.34;;;-1.47;69.37
5609;BME280;2826;51.354;9.588;2023-03-01T02:47:24;99315.28;;;-1.48;69.34
5609;BME280;2826;51.354;9.588;2023-03-01T02:49:50;99317.81;;;-1.48;69.11
5609;BME280;2826;51.354;9.588;2023-03-01T02:52:34;99322.91;;;-1.48;69.30
5609;BME280;2826;51.354;9.588;2023-03-01T02:55:06;99312.75;;;-1.48;69.11
5609;BME280;2826;51.354;9.588;2023-03-01T02:57:36;99314.34;;;-1.50;69.14
5609;BME280;2826;51.354;9.588;2023-03-01T03:00:06;99305.84;;;-1.52;68.98
5609;BME280;2826;51.354;9.588;2023-03-01T03:02:36;99305.69;;;-1.59;69.29
5609;BME280;2826;51.354;9.588;2023-03-01T03:05:11;99312.44;;;-1.59;69.39
5609;BME280;2826;51.354;9.588;2023-03-01T03:07:41;99312.38;;;-1.61;69.42
5609;BME280;2826;51.354;9.588;2023-03-01T03:10:11;99308.97;;;-1.61;69.38
5609;BME280;2826;51.354;9.588;2023-03-01T03:12:38;99320.03;;;-1.61;69.32
5609;BME280;2826;51.354;9.588;2023-03-01T03:15:07;99306.44;;;-1.61;69.02
5609;BME280;2826;51.354;9.588;2023-03-01T03:17:36;99310.56;;;-1.65;69.15
5609;BME280;2826;51.354;9.588;2023-03-01T03:20:04;99307.94;;;-1.68;69.02
5609;BME280;2826;51.354;9.588;2023-03-01T03:22:31;99305.34;;;-1.71;69.18
5609;BME280;2826;51.354;9.588;2023-03-01T03:24:59;99300.16;;;-1.74;69.61
5609;BME280;2826;51.354;9.588;2023-03-01T03:27:25;99295.88;;;-1.75;69.37
5609;BME280;2826;51.354;9.588;2023-03-01T03:29:52;99298.44;;;-1.75;69.59
5609;BME280;2826;51.354;9.588;2023-03-01T03:32:18;99290.81;;;-1.75;69.72
5609;BME280;2826;51.354;9.588;2023-03-01T03:34:46;99285.81;;;-1.72;69.60
5609;BME280;2826;51.354;9.588;2023-03-01T03:37:14;99276.44;;;-1.73;69.52
5609;BME280;2826;51.354;9.588;2023-03-01T03:39:55;99280.75;;;-1.71;69.74
5609;BME280;2826;51.354;9.588;2023-03-01T03:42:21;99284.16;;;-1.70;69.65
5609;BME280;2826;51.354;9.588;2023-03-01T03:44:48;99280.75;;;-1.71;69.55
5609;BME280;2826;51.354;9.588;2023-03-01T03:47:15;99281.66;;;-1.68;69.66
5609;BME280;2826;51.354;9.588;2023-03-01T03:49:41;99278.28;;;-1.67;69.84
5609;BME280;2826;51.354;9.588;2023-03-01T03:52:09;99275.69;;;-1.69;69.68
5609;BME280;2826;51.354;9.588;2023-03-01T03:54:39;99253.38;;;-1.79;69.75
5609;BME280;2826;51.354;9.588;2023-03-01T03:57:06;99280.16;;;-1.62;69.44
5609;BME280;2826;51.354;9.588;2023-03-01T03:59:32;99281.88;;;-1.61;69.29
5609;BME280;2826;51.354;9.588;2023-03-01T04:01:59;99273.34;;;-1.63;69.18
5609;BME280;2826;51.354;9.588;2023-03-01T04:04:26;99267.25;;;-1.68;69.16
5609;BME280;2826;51.354;9.588;2023-03-01T04:06:52;99267.19;;;-1.71;69.29
5609;BME280;2826;51.354;9.588;2023-03-01T04:09:20;99273.94;;;-1.72;69.30
5609;BME280;2826;51.354;9.588;2023-03-01T04:11:47;99271.34;;;-1.73;69.34
5609;BME280;2826;51.354;9.588;2023-03-01T04:14:13;99267.03;;;-1.76;69.32
5609;BME280;2826;51.354;9.588;2023-03-01T04:16:40;99273.03;;;-1.74;69.20
5609;BME280;2826;51.354;9.588;2023-03-01T04:19:06;99273.84;;;-1.75;69.21
5609;BME280;2826;51.354;9.588;2023-03-01T04:21:34;99277.16;;;-1.77;69.27
5609;BME280;2826;51.354;9.588;2023-03-01T04:24:01;99271.19;;;-1.79;69.22
5609;BME280;2826;51.354;9.588;2023-03-01T04:26:30;99273.72;;;-1.79;69.27
5609;BME280;2826;51.354;9.588;2023-03-01T04:28:56;99272.84;;;-1.80;69.36
5609;BME280;2826;51.354;9.588;2023-03-01T04:31:23;99271.03;;;-1.84;69.38
5609;BME280;2826;51.354;9.588;2023-03-01T04:33:51;99278.59;;;-1.87;69.68
5609;BME280;2826;51.354;9.588;2023-03-01T04:36:20;99251.06;;;-2.02;69.67
5609;BME280;2826;51.354;9.588;2023-03-01T04:38:48;99264.75;;;-1.97;69.92
5609;BME280;2826;51.354;9.588;2023-03-01T04:41:16;99269.78;;;-1.99;70.13
5609;BME280;2826;51.354;9.588;2023-03-01T04:43:44;99279.44;;;-1.87;70.04
5609;BME280;2826;51.354;9.588;2023-03-01T04:46:12;99279.44;;;-1.87;70.21
5609;BME280;2826;51.354;9.588;2023-03-01T04:48:41;99281.31;;;-1.81;70.09
5609;BME280;2826;51.354;9.588;2023-03-01T04:51:08;99270.19;;;-1.85;70.02
5609;BME280;2826;51.354;9.588;2023-03-01T04:53:39;99271.03;;;-1.84;69.96
5609;BME280;2826;51.354;9.588;2023-03-01T04:56:06;99273.78;;;-1.78;69.99
5609;BME280;2826;51.354;9.588;2023-03-01T04:58:33;99272.91;;;-1.78;70.24
5609;BME280;2826;51.354;9.588;2023-03-01T05:01:01;99267.78;;;-1.80;69.88
5609;BME280;2826;51.354;9.588;2023-03-01T05:03:27;99256.50;;;-1.90;70.33
5609;BME280;2826;51.354;9.588;2023-03-01T05:05:58;99269.47;;;-1.80;70.38
5609;BME280;2826;51.354;9.588;2023-03-01T05:08:25;99254.91;;;-1.86;70.39
5609;BME280;2826;51.354;9.588;2023-03-01T05:10:52;99271.75;;;-1.90;70.93
5609;BME280;2826;51.354;9.588;2023-03-01T05:13:20;99259.00;;;-1.91;71.00
5609;BME280;2826;51.354;9.588;2023-03-01T05:15:48;99263.97;;;-1.94;71.00
5609;BME280;2826;51.354;9.588;2023-03-01T05:18:16;99256.19;;;-2.01;71.83
5609;BME280;2826;51.354;9.588;2023-03-01T05:20:43;99256.94;;;-2.05;71.98
5609;BME280;2826;51.354;9.588;2023-03-01T05:23:10;99260.19;;;-2.09;71.97
5609;BME280;2826;51.354;9.588;2023-03-01T05:25:37;99263.50;;;-2.12;72.31
5609;BME280;2826;51.354;9.588;2023-03-01T05:28:07;99265.13;;;-2.14;72.62
5609;BME280;2826;51.354;9.588;2023-03-01T05:30:36;99259.16;;;-2.16;72.76
5609;BME280;2826;51.354;9.588;2023-03-01T05:33:04;99276.88;;;-2.17;72.97
5609;BME280;2826;51.354;9.588;2023-03-01T05:35:37;99271.81;;;-2.17;72.93
5609;BME280;2826;51.354;9.588;2023-03-01T05:38:03;99269.38;;;-2.14;72.70
5609;BME280;2826;51.354;9.588;2023-03-01T05:40:30;99269.22;;;-2.19;73.02
5609;BME280;2826;51.354;9.588;2023-03-01T05:42:59;99268.31;;;-2.21;72.95
5609;BME280;2826;51.354;9.588;2023-03-01T05:45:26;99252.06;;;-2.26;73.22
5609;BME280;2826;51.354;9.588;2023-03-01T05:47:54;99250.25;;;-2.30;73.24
5609;BME280;2826;51.354;9.588;2023-03-01T05:50:23;99255.16;;;-2.37;73.74
5609;BME280;2826;51.354;9.588;2023-03-01T05:52:57;99221.69;;;-2.51;73.82
5609;BME280;2826;51.354;9.588;2023-03-01T05:55:24;99247.72;;;-2.30;73.61
5609;BME280;2826;51.354;9.588;2023-03-01T05:57:51;99252.75;;;-2.32;73.67
5609;BME280;2826;51.354;9.588;2023-03-01T06:00:19;99250.13;;;-2.35;73.68
5609;BME280;2826;51.354;9.588;2023-03-01T06:02:48;99252.50;;;-2.40;73.79
5609;BME280;2826;51.354;9.588;2023-03-01T06:05:15;99255.19;;;-2.35;73.54
5609;BME280;2826;51.354;9.588;2023-03-01T06:07:42;99256.91;;;-2.34;73.29
5609;BME280;2826;51.354;9.588;2023-03-01T06:10:11;99250.16;;;-2.33;73.46
5609;BME280;2826;51.354;9.588;2023-03-01T06:12:40;99256.13;;;-2.31;73.40
5609;BME280;2826;51.354;9.588;2023-03-01T06:15:08;99247.72;;;-2.30;73.37
5609;BME280;2826;51.354;9.588;2023-03-01T06:17:36;99248.63;;;-2.28;73.13
5609;BME280;2826;51.354;9.588;2023-03-01T06:20:04;99222.56;;;-2.50;72.98
5609;BME280;2826;51.354;9.588;2023-03-01T06:22:32;99260.44;;;-2.30;73.40
5609;BME280;2826;51.354;9.588;2023-03-01T06:24:59;99258.59;;;-2.34;73.71
5609;BME280;2826;51.354;9.588;2023-03-01T06:27:27;99257.91;;;-2.29;73.42
5609;BME280;2826;51.354;9.588;2023-03-01T06:29:53;99250.28;;;-2.29;73.36
5609;BME280;2826;51.354;9.588;2023-03-01T06:32:20;99254.78;;;-2.20;73.18
5609;BME280;2826;51.354;9.588;2023-03-01T06:34:47;99254.78;;;-2.20;73.24
5609;BME280;2826;51.354;9.588;2023-03-01T06:37:13;99260.78;;;-2.18;73.20
5609;BME280;2826;51.354;9.588;2023-03-01T06:39:40;99254.06;;;-2.16;73.32
5609;BME280;2826;51.354;9.588;2023-03-01T06:42:07;99196.34;;;-2.49;73.29
5609;BME280;2826;51.354;9.588;2023-03-01T06:44:35;99253.41;;;-2.08;73.30
5609;BME280;2826;51.354;9.588;2023-03-01T06:47:01;99242.34;;;-2.11;73.36
5609;BME280;2826;51.354;9.588;2023-03-01T06:49:28;99245.06;;;-2.04;73.41
5609;BME280;2826;51.354;9.588;2023-03-01T06:51:55;99240.94;;;-2.01;73.18
5609;BME280;2826;51.354;9.588;2023-03-01T06:54:22;99243.56;;;-1.98;73.33
5609;BME280;2826;51.354;9.588;2023-03-01T06:56:49;99229.03;;;-2.02;72.95
5609;BME280;2826;51.354;9.588;2023-03-01T06:59:17;99252.56;;;-1.78;72.79
5609;BME280;2826;51.354;9.588;2023-03-01T07:01:44;99249.38;;;-1.71;72.61
5609;BME280;2826;51.354;9.588;2023-03-01T07:04:12;99245.38;;;-1.63;72.43
5609;BME280;2826;51.354;9.588;2023-03-01T07:06:38;99250.75;;;-1.50;72.07
5609;BME280;2826;51.354;9.588;2023-03-01T07:09:05;99249.22;;;-1.45;71.81
5609;BME280;2826;51.354;9.588;2023-03-01T07:11:32;99251.13;;;-1.36;71.68
5609;BME280;2826;51.354;9.588;2023-03-01T07:13:59;99248.00;;;-1.26;71.26
5609;BME280;2826;51.354;9.588;2023-03-01T07:16:25;99258.41;;;-1.16;70.80
5609;BME280;2826;51.354;9.588;2023-03-01T07:18:53;99262.81;;;-1.11;70.47
5609;BME280;2826;51.354;9.588;2023-03-01T07:21:20;99251.22;;;-0.99;70.37
5609;BME280;2826;51.354;9.588;2023-03-01T07:23:47;99223.03;;;-1.07;69.98
5609;BME280;2826;51.354;9.588;2023-03-01T07:26:14;99247.34;;;-0.83;69.70
5609;BME280;2826;51.354;9.588;2023-03-01T07:28:41;99248.34;;;-0.76;69.40
5609;BME280;2826;51.354;9.588;2023-03-01T07:31:07;99248.59;;;-0.66;69.20
5609;BME280;2826;51.354;9.588;2023-03-01T07:33:34;99246.19;;;-0.59;68.89
5609;BME280;2826;51.354;9.588;2023-03-01T07:36:03;99246.34;;;-0.51;68.75
5609;BME280;2826;51.354;9.588;2023-03-01T07:38:30;99228.53;;;-0.51;68.53
5609;BME280;2826;51.354;9.588;2023-03-01T07:40:58;99240.66;;;-0.41;68.55
5609;BME280;2826;51.354;9.588;2023-03-01T07:43:25;99234.09;;;-0.31;68.40
5609;BME280;2826;51.354;9.588;2023-03-01T07:45:52;99234.28;;;-0.20;67.68
5609;BME280;2826;51.354;9.588;2023-03-01T07:48:19;99234.50;;;-0.11;67.24
5609;BME280;2826;51.354;9.588;2023-03-01T07:50:45;99239.53;;;-0.14;67.54
5609;BME280;2826;51.354;9.588;2023-03-01T07:53:14;99238.66;;;-0.15;67.69
5609;BME280;2826;51.354;9.588;2023-03-01T07:55:40;99215.63;;;-0.19;67.38
5609;BME280;2826;51.354;9.588;2023-03-01T07:58:07;99225.44;;;0.04;67.40
5609;BME280;2826;51.354;9.588;2023-03-01T08:00:34;99227.09;;;0.02;67.21
5609;BME280;2826;51.354;9.588;2023-03-01T08:03:01;99224.63;;;0.06;67.30
5609;BME280;2826;51.354;9.588;2023-03-01T08:05:28;99232.47;;;0.16;66.74
5609;BME280;2826;51.354;9.588;2023-03-01T08:07:55;99236.09;;;0.29;66.36
5609;BME280;2826;51.354;9.588;2023-03-01T08:10:23;99236.44;;;0.46;66.03
5609;BME280;2826;51.354;9.588;2023-03-01T08:12:51;99196.34;;;0.40;65.63
5609;BME280;2826;51.354;9.588;2023-03-01T08:15:18;99227.44;;;0.65;65.23
5609;BME280;2826;51.354;9.588;2023-03-01T08:17:45;99223.38;;;0.78;65.10
5609;BME280;2826;51.354;9.588;2023-03-01T08:20:11;99226.16;;;0.90;64.76
5609;BME280;2826;51.354;9.588;2023-03-01T08:22:38;99204.91;;;0.93;64.17
5609;BME280;2826;51.354;9.588;2023-03-01T08:25:05;99219.66;;;1.10;64.04
5609;BME280;2826;51.354;9.588;2023-03-01T08:27:33;99209.56;;;1.19;63.84
5609;BME280;2826;51.354;9.588;2023-03-01T08:29:59;99212.34;;;1.35;63.59
5609;BME280;2826;51.354;9.588;2023-03-01T08:32:26;99215.94;;;1.46;63.42
5609;BME280;2826;51.354;9.588;2023-03-01T08:34:52;99207.53;;;1.55;63.26
5609;BME280;2826;51.354;9.588;2023-03-01T08:37:19;99201.72;;;1.67;63.09
5609;BME280;2826;51.354;9.588;2023-03-01T08:39:46;99191.59;;;1.76;62.35
5609;BME280;2826;51.354;9.588;2023-03-01T08:42:12;99197.75;;;1.91;62.25
5609;BME280;2826;51.354;9.588;2023-03-01T08:44:40;99205.69;;;2.16;61.78
5609;BME280;2826;51.354;9.588;2023-03-01T08:47:07;99205.91;;;2.33;60.04
5609;BME280;2826;51.354;9.588;2023-03-01T08:49:33;99210.31;;;2.50;59.31
5609;BME280;2826;51.354;9.588;2023-03-01T08:52:01;99209.59;;;2.60;57.97
5609;BME280;2826;51.354;9.588;2023-03-01T08:54:28;99181.44;;;2.65;56.84
5609;BME280;2826;51.354;9.588;2023-03-01T08:56:55;99200.44;;;2.90;56.57
5609;BME280;2826;51.354;9.588;2023-03-01T08:59:25;99195.31;;;2.92;55.42
5609;BME280;2826;51.354;9.588;2023-03-01T09:01:53;99203.09;;;3.01;54.74
5609;BME280;2826;51.354;9.588;2023-03-01T09:04:19;99202.41;;;3.22;55.04
5609;BME280;2826;51.354;9.588;2023-03-01T09:06:46;99197.34;;;3.32;54.75
5609;BME280;2826;51.354;9.588;2023-03-01T09:09:14;99197.38;;;3.44;54.17
5609;BME280;2826;51.354;9.588;2023-03-01T09:11:42;99193.97;;;3.42;53.36
5609;BME280;2826;51.354;9.588;2023-03-01T09:14:09;99167.50;;;3.51;54.25
5609;BME280;2826;51.354;9.588;2023-03-01T09:16:36;99185.59;;;3.77;53.47
5609;BME280;2826;51.354;9.588;2023-03-01T09:19:04;99177.03;;;3.77;52.09
5609;BME280;2826;51.354;9.588;2023-03-01T09:21:31;99177.91;;;3.82;52.84
5609;BME280;2826;51.354;9.588;2023-03-01T09:23:58;99182.22;;;3.88;52.68
5609;BME280;2826;51.354;9.588;2023-03-01T09:26:25;99174.53;;;3.88;52.06
5609;BME280;2826;51.354;9.588;2023-03-01T09:28:55;99183.97;;;3.95;51.93
5609;BME280;2826;51.354;9.588;2023-03-01T09:31:23;99178.84;;;4.03;51.76
5609;BME280;2826;51.354;9.588;2023-03-01T09:33:51;99178.84;;;4.00;50.76
5609;BME280;2826;51.354;9.588;2023-03-01T09:36:21;99162.59;;;4.02;51.20
5609;BME280;2826;51.354;9.588;2023-03-01T09:38:49;99147.22;;;4.05;50.72
5609;BME280;2826;51.354;9.588;2023-03-01T09:41:30;99177.22;;;4.30;50.61
5609;BME280;2826;51.354;9.588;2023-03-01T09:44:01;99177.25;;;4.42;50.10
5609;BME280;2826;51.354;9.588;2023-03-01T09:46:32;99168.66;;;4.34;49.70
5609;BME280;2826;51.354;9.588;2023-03-01T09:49:04;99159.28;;;4.36;50.13
5609;BME280;2826;51.354;9.588;2023-03-01T09:51:37;99164.44;;;4.56;50.64
5609;BME280;2826;51.354;9.588;2023-03-01T09:54:04;99171.28;;;4.68;50.28
5609;BME280;2826;51.354;9.588;2023-03-01T09:56:37;99163.56;;;4.73;50.88
5609;BME280;2826;51.354;9.588;2023-03-01T09:59:17;99170.44;;;4.73;49.67
5609;BME280;2826;51.354;9.588;2023-03-01T10:01:51;99178.97;;;4.71;48.48
5609;BME280;2826;51.354;9.588;2023-03-01T10:04:28;99179.00;;;4.87;49.54
5609;BME280;2826;51.354;9.588;2023-03-01T10:07:12;99174.72;;;5.06;49.29
5609;BME280;2826;51.354;9.588;2023-03-01T10:09:45;99172.94;;;5.26;49.29
5609;BME280;2826;51.354;9.588;2023-03-01T10:12:14;99174.66;;;5.31;48.76
5609;BME280;2826;51.354;9.588;2023-03-01T10:14:50;99160.94;;;5.35;48.51
5609;BME280;2826;51.354;9.588;2023-03-01T10:17:26;99164.34;;;5.30;48.94
5609;BME280;2826;51.354;9.588;2023-03-01T10:19:54;99154.91;;;5.41;49.11
5609;BME280;2826;51.354;9.588;2023-03-01T10:22:27;99147.16;;;5.47;49.43
5609;BME280;2826;51.354;9.588;2023-03-01T10:24:56;99149.75;;;5.52;49.07
5609;BME280;2826;51.354;9.588;2023-03-01T10:27:25;99148.88;;;5.59;48.99
5609;BME280;2826;51.354;9.588;2023-03-01T10:29:56;99143.72;;;5.53;48.73
5609;BME280;2826;51.354;9.588;2023-03-01T10:32:26;99142.84;;;5.59;48.51
5609;BME280;2826;51.354;9.588;2023-03-01T10:34:53;99137.69;;;5.63;48.82
5609;BME280;2826;51.354;9.588;2023-03-01T10:37:21;99112.81;;;5.61;48.93
5609;BME280;2826;51.354;9.588;2023-03-01T10:40:02;99132.53;;;5.70;48.56
5609;BME280;2826;51.354;9.588;2023-03-01T10:42:35;99132.53;;;5.67;48.29
5609;BME280;2826;51.354;9.588;2023-03-01T10:45:28;99129.91;;;5.79;49.05
5609;BME280;2826;51.354;9.588;2023-03-01T10:48:04;99117.78;;;6.01;48.71
5609;BME280;2826;51.354;9.588;2023-03-01T10:50:31;99128.03;;;6.16;47.73
5609;BME280;2826;51.354;9.588;2023-03-01T10:52:59;99129.78;;;6.07;47.89
5609;BME280;2826;51.354;9.588;2023-03-01T10:55:31;99122.88;;;6.16;47.86
5609;BME280;2826;51.354;9.588;2023-03-01T10:58:16;99126.28;;;6.21;47.34
5609;BME280;2826;51.354;9.588;2023-03-01T11:00:47;99123.69;;;6.21;47.47
5609;BME280;2826;51.354;9.588;2023-03-01T11:03:17;99122.81;;;6.30;48.07
5609;BME280;2826;51.354;9.588;2023-03-01T11:05:58;99119.25;;;6.43;47.38
5609;BME280;2826;51.354;9.588;2023-03-01T11:08:34;99114.09;;;6.45;47.39
5609;BME280;2826;51.354;9.588;2023-03-01T11:11:13;99108.81;;;6.62;47.58
5609;BME280;2826;51.354;9.588;2023-03-01T11:13:50;99108.91;;;6.49;46.63
5609;BME280;2826;51.354;9.588;2023-03-01T11:16:24;99107.13;;;6.56;47.29
5609;BME280;2826;51.354;9.588;2023-03-01T11:19:00;99098.44;;;6.70;47.56
5609;BME280;2826;51.354;9.588;2023-03-01T11:21:29;99098.38;;;6.76;46.45
5609;BME280;2826;51.354;9.588;2023-03-01T11:23:59;99096.66;;;6.75;46.86
5609;BME280;2826;51.354;9.588;2023-03-01T11:26:28;99100.78;;;6.95;46.38
5609;BME280;2826;51.354;9.588;2023-03-01T11:29:00;99099.19;;;6.81;45.96
5609;BME280;2826;51.354;9.588;2023-03-01T11:31:28;99089.81;;;6.72;46.78
5609;BME280;2826;51.354;9.588;2023-03-01T11:33:58;99099.19;;;6.81;46.03
5609;BME280;2826;51.354;9.588;2023-03-01T11:36:31;99088.13;;;6.70;45.90
5609;BME280;2826;51.354;9.588;2023-03-01T11:39:03;99083.75;;;6.78;45.53
5609;BME280;2826;51.354;9.588;2023-03-01T11:41:40;99065.78;;;6.70;45.49
5609;BME280;2826;51.354;9.588;2023-03-01T11:44:14;99099.00;;;7.03;44.50
5609;BME280;2826;51.354;9.588;2023-03-01T11:46:58;99087.69;;;7.16;44.32
5609;BME280;2826;51.354;9.588;2023-03-01T11:49:49;99087.44;;;7.37;44.14
5609;BME280;2826;51.354;9.588;2023-03-01T11:52:27;99082.16;;;7.48;43.13
5609;BME280;2826;51.354;9.588;2023-03-01T11:55:10;99085.66;;;7.43;44.13
5609;BME280;2826;51.354;9.588;2023-03-01T11:57:55;99060.78;;;7.36;44.68
5609;BME280;2826;51.354;9.588;2023-03-01T12:00:50;99080.47;;;7.45;44.95
5609;BME280;2826;51.354;9.588;2023-03-01T12:03:26;99064.13;;;7.46;45.51
5609;BME280;2826;51.354;9.588;2023-03-01T12:06:05;99070.66;;;7.72;43.64
5609;BME280;2826;51.354;9.588;2023-03-01T12:08:41;99073.97;;;7.80;42.78
5609;BME280;2826;51.354;9.588;2023-03-01T12:11:19;99075.50;;;7.95;43.16
5609;BME280;2826;51.354;9.588;2023-03-01T12:14:19;99073.63;;;8.05;42.31
5609;BME280;2826;51.354;9.588;2023-03-01T12:17:06;99069.19;;;8.17;42.70
5609;BME280;2826;51.354;9.588;2023-03-01T12:19:49;99061.28;;;8.26;42.38
5609;BME280;2826;51.354;9.588;2023-03-01T12:22:29;99046.72;;;8.20;41.33
5609;BME280;2826;51.354;9.588;2023-03-01T12:25:16;99055.88;;;8.39;41.41
5609;BME280;2826;51.354;9.588;2023-03-01T12:27:56;99057.53;;;8.43;41.82
5609;BME280;2826;51.354;9.588;2023-03-01T12:30:37;99039.44;;;8.43;40.78
5609;BME280;2826;51.354;9.588;2023-03-01T12:33:17;99047.13;;;8.49;40.53
5609;BME280;2826;51.354;9.588;2023-03-01T12:35:56;99053.00;;;8.59;40.49
5609;BME280;2826;51.354;9.588;2023-03-01T12:38:33;99039.94;;;8.68;39.74
5609;BME280;2826;51.354;9.588;2023-03-01T12:41:14;99033.94;;;8.65;39.36
5609;BME280;2826;51.354;9.588;2023-03-01T12:43:56;99033.00;;;8.69;40.44
5609;BME280;2826;51.354;9.588;2023-03-01T12:46:36;99029.47;;;8.74;39.28
5609;BME280;2826;51.354;9.588;2023-03-01T12:49:08;99026.84;;;8.78;38.89
5609;BME280;2826;51.354;9.588;2023-03-01T12:51:38;99024.16;;;8.82;38.82
5609;BME280;2826;51.354;9.588;2023-03-01T12:54:07;99004.16;;;8.91;37.21
5609;BME280;2826;51.354;9.588;2023-03-01T12:56:38;99016.84;;;9.05;37.73
5609;BME280;2826;51.354;9.588;2023-03-01T12:59:12;99010.75;;;9.07;36.96
5609;BME280;2826;51.354;9.588;2023-03-01T13:01:45;99012.97;;;8.82;36.43
5609;BME280;2826;51.354;9.588;2023-03-01T13:04:25;99014.81;;;8.75;36.60
5609;BME280;2826;51.354;9.588;2023-03-01T13:07:02;98996.25;;;8.53;36.49
5609;BME280;2826;51.354;9.588;2023-03-01T13:09:35;99002.81;;;8.71;36.63
5609;BME280;2826;51.354;9.588;2023-03-01T13:12:04;98989.78;;;8.77;37.40
5609;BME280;2826;51.354;9.588;2023-03-01T13:14:53;99004.81;;;9.02;37.60
5609;BME280;2826;51.354;9.588;2023-03-01T13:17:32;99002.69;;;9.21;36.97
5609;BME280;2826;51.354;9.588;2023-03-01T13:19:59;99001.66;;;9.30;37.39
5609;BME280;2826;51.354;9.588;2023-03-01T13:22:29;99003.81;;;9.50;36.32
5609;BME280;2826;51.354;9.588;2023-03-01T13:25:14;99002.03;;;9.52;35.56
5609;BME280;2826;51.354;9.588;2023-03-01T13:27:41;98994.81;;;9.27;35.34
5609;BME280;2826;51.354;9.588;2023-03-01T13:30:40;98986.47;;;9.54;35.29
5609;BME280;2826;51.354;9.588;2023-03-01T13:33:44;98986.38;;;9.59;35.82
5609;BME280;2826;51.354;9.588;2023-03-01T13:36:46;98987.38;;;9.53;34.63
5609;BME280;2826;51.354;9.588;2023-03-01T13:39:33;98988.28;;;9.50;34.56
5609;BME280;2826;51.354;9.588;2023-03-01T13:42:30;98978.19;;;9.77;35.91
5609;BME280;2826;51.354;9.588;2023-03-01T13:44:57;98978.22;;;9.76;34.80